createdAt,value
2019-02-11T00:00:35.080Z,0.70
2019-02-11T00:03:08.533Z,1.13
2019-02-11T00:05:41.952Z,0.50
2019-02-11T00:08:15.380Z,0.60
2019-02-11T00:10:48.825Z,0.50
2019-02-11T00:13:22.247Z,0.60
2019-02-11T00:15:55.664Z,0.60
2019-02-11T00:18:29.120Z,1.20
2019-02-11T00:21:02.547Z,0.60
2019-02-11T00:23:35.986Z,0.67
2019-02-11T00:26:09.412Z,0.60
2019-02-11T00:28:42.848Z,0.70
2019-02-11T00:31:16.364Z,0.60
2019-02-11T00:33:49.781Z,0.70
2019-02-11T00:36:23.209Z,0.60
2019-02-11T00:38:56.645Z,0.60
2019-02-11T00:41:30.073Z,0.60
2019-02-11T00:44:03.500Z,0.70
2019-02-11T00:46:36.931Z,1.07
2019-02-11T00:49:10.369Z,1.37
2019-02-11T00:51:43.792Z,0.70
2019-02-11T00:54:17.301Z,1.17
2019-02-11T00:56:50.703Z,0.80
2019-02-11T00:59:24.146Z,2.00
2019-02-11T01:01:57.559Z,0.60
2019-02-11T01:04:30.979Z,0.80
2019-02-11T01:07:04.398Z,0.70
2019-02-11T01:09:37.831Z,0.80
2019-02-11T01:12:11.252Z,0.70
2019-02-11T01:14:44.675Z,0.80
2019-02-11T01:17:18.090Z,0.97
2019-02-11T01:19:51.523Z,1.00
2019-02-11T01:22:24.933Z,1.10
2019-02-11T01:24:58.360Z,1.10
2019-02-11T01:27:31.780Z,1.27
2019-02-11T01:30:08.839Z,0.90
2019-02-11T01:33:01.699Z,1.33
2019-02-11T01:35:35.136Z,1.30
2019-02-11T01:38:08.631Z,1.50
2019-02-11T01:40:42.055Z,1.20
2019-02-11T01:43:15.475Z,1.50
2019-02-11T01:45:48.893Z,2.53
2019-02-11T01:48:22.302Z,2.17
2019-02-11T01:50:55.743Z,1.33
2019-02-11T01:53:29.155Z,2.53
2019-02-11T01:56:02.588Z,6.73
2019-02-11T01:58:36.003Z,3.10
2019-02-11T02:01:09.422Z,3.10
2019-02-11T02:03:42.845Z,1.57
2019-02-11T02:06:16.263Z,1.97
2019-02-11T02:08:49.684Z,1.43
2019-02-11T02:11:23.111Z,1.90
2019-02-11T02:13:56.527Z,1.93
2019-02-11T02:16:30.343Z,3.33
2019-02-11T02:19:03.751Z,2.00
2019-02-11T02:21:37.175Z,3.23
2019-02-11T02:24:10.591Z,1.37
2019-02-11T02:26:44.010Z,1.60
2019-02-11T02:29:17.431Z,1.67
2019-02-11T02:31:50.852Z,4.43
2019-02-11T02:34:24.275Z,2.23
2019-02-11T02:36:57.715Z,2.30
2019-02-11T02:39:31.120Z,1.50
2019-02-11T02:42:04.556Z,1.20
2019-02-11T02:44:37.963Z,2.57
2019-02-11T02:47:11.379Z,1.27
2019-02-11T02:49:44.800Z,1.37
2019-02-11T02:52:18.229Z,4.53
2019-02-11T02:54:51.648Z,2.23
2019-02-11T02:57:25.069Z,1.10
2019-02-11T02:59:58.483Z,3.40
2019-02-11T03:02:31.912Z,1.37
2019-02-11T03:05:07.773Z,1.03
2019-02-11T03:07:41.191Z,0.97
2019-02-11T03:10:14.604Z,1.30
2019-02-11T03:12:48.031Z,1.37
2019-02-11T03:15:21.448Z,1.20
2019-02-11T03:17:54.881Z,0.70
2019-02-11T03:20:28.294Z,0.77
2019-02-11T03:23:01.816Z,0.70
2019-02-11T03:25:35.240Z,0.80
2019-02-11T03:28:08.671Z,0.70
2019-02-11T03:30:42.089Z,0.60
2019-02-11T03:33:15.508Z,1.07
2019-02-11T03:35:48.916Z,0.57
2019-02-11T03:38:22.346Z,1.60
2019-02-11T03:40:55.838Z,0.63
2019-02-11T03:43:29.259Z,1.10
2019-02-11T03:46:02.664Z,0.67
2019-02-11T03:48:36.083Z,0.50
2019-02-11T03:51:09.490Z,0.60
2019-02-11T03:53:42.918Z,0.57
2019-02-11T03:56:16.326Z,0.70
2019-02-11T03:58:49.759Z,0.57
2019-02-11T04:01:23.171Z,0.70
2019-02-11T04:03:56.605Z,0.77
2019-02-11T04:06:30.009Z,0.60
2019-02-11T04:09:04.980Z,1.03
2019-02-11T04:11:38.403Z,0.70
2019-02-11T04:14:11.826Z,0.60
2019-02-11T04:16:45.300Z,0.80
2019-02-11T04:19:18.734Z,0.63
2019-02-11T04:22:01.160Z,0.73
2019-02-11T04:24:34.582Z,0.60
2019-02-11T04:27:07.995Z,0.73
2019-02-11T04:29:41.454Z,0.80
2019-02-11T04:32:14.913Z,0.70
2019-02-11T04:34:48.340Z,1.00
2019-02-11T04:37:21.760Z,0.80
2019-02-11T04:39:55.171Z,0.70
2019-02-11T04:42:28.584Z,1.27
2019-02-11T04:45:02.095Z,0.80
2019-02-11T04:47:35.510Z,0.73
2019-02-11T04:50:10.168Z,0.80
2019-02-11T04:52:43.579Z,1.10
2019-02-11T04:55:17.003Z,2.43
2019-02-11T04:57:50.419Z,2.50
2019-02-11T05:00:23.848Z,2.40
2019-02-11T05:02:57.261Z,4.50
2019-02-11T05:05:30.688Z,1.13
2019-02-11T05:08:04.164Z,1.60
2019-02-11T05:10:37.591Z,1.30
2019-02-11T05:13:11.013Z,6.57
2019-02-11T05:15:44.652Z,3.03
2019-02-11T05:18:18.076Z,3.00
2019-02-11T05:20:51.505Z,2.53
2019-02-11T05:23:24.925Z,0.90
2019-02-11T05:25:58.359Z,2.87
2019-02-11T05:28:31.840Z,11.40
2019-02-11T05:31:05.272Z,1.30
2019-02-11T05:33:38.688Z,1.67
2019-02-11T05:36:12.114Z,0.93
2019-02-11T05:38:45.553Z,0.90
2019-02-11T05:41:19.046Z,1.97
2019-02-11T05:43:52.472Z,1.70
2019-02-11T05:46:25.908Z,1.10
2019-02-11T05:48:59.334Z,0.80
2019-02-11T05:51:32.755Z,1.00
2019-02-11T05:54:06.169Z,2.50
2019-02-11T05:56:39.682Z,4.97
2019-02-11T05:59:13.083Z,4.40
2019-02-11T06:01:46.504Z,1.80
2019-02-11T06:04:19.924Z,3.83
2019-02-11T06:06:53.357Z,2.83
2019-02-11T06:09:26.790Z,4.77
2019-02-11T06:12:00.211Z,1.37
2019-02-11T06:14:33.626Z,3.47
2019-02-11T06:17:07.132Z,3.73
2019-02-11T06:19:40.553Z,2.97
2019-02-11T06:22:13.971Z,4.33
2019-02-11T06:24:47.399Z,4.57
2019-02-11T06:27:20.844Z,2.23
2019-02-11T06:29:54.268Z,2.00
2019-02-11T06:32:27.691Z,2.23
2019-02-11T06:35:01.110Z,2.03
2019-02-11T06:37:34.528Z,2.57
2019-02-11T06:40:10.183Z,1.50
2019-02-11T06:42:43.606Z,2.17
2019-02-11T06:45:17.020Z,2.00
2019-02-11T06:47:50.523Z,1.70
2019-02-11T06:50:23.926Z,2.83
2019-02-11T06:52:57.353Z,2.63
2019-02-11T06:55:30.770Z,3.17
2019-02-11T06:58:04.387Z,2.97
2019-02-11T07:00:37.808Z,2.30
2019-02-11T07:03:11.235Z,4.33
2019-02-11T07:05:44.649Z,2.50
2019-02-11T07:08:18.080Z,3.70
2019-02-11T07:10:55.765Z,6.43
2019-02-11T07:13:26.723Z,5.23
2019-02-11T07:16:00.134Z,4.93
2019-02-11T07:18:35.364Z,4.40
2019-02-11T07:21:08.698Z,5.77
2019-02-11T07:23:42.129Z,4.70
2019-02-11T07:26:15.544Z,4.00
2019-02-11T07:28:48.968Z,3.73
2019-02-11T07:31:22.380Z,3.53
2019-02-11T07:33:55.807Z,4.87
2019-02-11T07:36:29.251Z,4.40
2019-02-11T07:39:02.672Z,6.13
2019-02-11T07:41:40.381Z,4.50
2019-02-11T07:44:15.445Z,6.87
2019-02-11T07:46:48.861Z,8.53
2019-02-11T07:49:22.304Z,5.77
2019-02-11T07:51:55.722Z,6.70
2019-02-11T07:54:29.160Z,3.90
2019-02-11T07:57:02.565Z,4.67
2019-02-11T07:59:36.004Z,7.60
2019-02-11T08:02:09.421Z,4.43
2019-02-11T08:04:42.845Z,4.10
2019-02-11T08:07:16.282Z,3.90
2019-02-11T08:09:49.775Z,7.63
2019-02-11T08:12:23.266Z,5.13
2019-02-11T08:14:56.695Z,4.63
2019-02-11T08:17:30.106Z,6.40
2019-02-11T08:20:06.205Z,5.50
2019-02-11T08:22:39.638Z,5.53
2019-02-11T08:25:13.124Z,5.30
2019-02-11T08:27:46.531Z,4.87
2019-02-11T08:30:19.955Z,7.03
2019-02-11T08:32:53.367Z,7.53
2019-02-11T08:35:26.810Z,6.27
2019-02-11T08:38:00.238Z,5.80
2019-02-11T08:40:33.664Z,7.00
2019-02-11T08:43:07.090Z,7.27
2019-02-11T08:45:46.799Z,6.00
2019-02-11T08:48:15.771Z,5.77
2019-02-11T08:50:49.203Z,6.60
2019-02-11T08:53:22.614Z,5.70
2019-02-11T08:55:56.044Z,7.77
2019-02-11T08:58:29.456Z,6.73
2019-02-11T09:01:02.946Z,5.57
2019-02-11T09:03:36.452Z,8.60
2019-02-11T09:06:09.868Z,7.17
2019-02-11T09:08:43.283Z,6.03
2019-02-11T09:11:16.724Z,7.87
2019-02-11T09:13:50.128Z,8.33
2019-02-11T09:16:23.569Z,4.90
2019-02-11T09:18:57.009Z,8.63
2019-02-11T09:21:30.438Z,6.30
2019-02-11T09:24:03.855Z,10.60
2019-02-11T09:26:39.330Z,7.37
2019-02-11T09:29:24.686Z,8.73
2019-02-11T09:31:58.109Z,6.03
2019-02-11T09:34:31.523Z,10.73
2019-02-11T09:37:04.953Z,8.17
2019-02-11T09:39:38.368Z,9.90
2019-02-11T09:42:12.135Z,11.90
2019-02-11T09:44:45.555Z,13.20
2019-02-11T09:47:19.046Z,7.77
2019-02-11T09:49:55.531Z,7.70
2019-02-11T09:52:28.964Z,8.23
2019-02-11T09:55:02.379Z,8.37
2019-02-11T09:57:35.823Z,13.17
2019-02-11T10:00:09.758Z,10.57
2019-02-11T10:02:43.192Z,13.17
2019-02-11T10:05:16.796Z,11.40
2019-02-11T10:07:50.231Z,7.20
2019-02-11T10:10:23.659Z,9.10
2019-02-11T10:12:57.123Z,7.07
2019-02-11T10:15:30.584Z,10.27
2019-02-11T10:18:04.080Z,8.67
2019-02-11T10:20:37.488Z,9.83
2019-02-11T10:23:10.927Z,8.90
2019-02-11T10:25:44.352Z,6.00
2019-02-11T10:28:17.800Z,8.83
2019-02-11T10:30:51.216Z,9.70
2019-02-11T10:33:24.683Z,8.33
2019-02-11T10:35:58.090Z,6.70
2019-02-11T10:38:36.541Z,7.73
2019-02-11T10:41:06.661Z,7.63
2019-02-11T10:43:40.079Z,7.03
2019-02-11T10:46:20.850Z,6.47
2019-02-11T10:48:48.638Z,7.93
2019-02-11T10:51:22.048Z,8.37
2019-02-11T10:53:55.471Z,8.80
2019-02-11T10:56:28.923Z,8.93
2019-02-11T10:59:02.396Z,6.57
2019-02-11T11:01:35.823Z,8.03
2019-02-11T11:04:09.267Z,10.10
2019-02-11T11:06:42.740Z,6.33
2019-02-11T11:09:16.811Z,6.40
2019-02-11T11:11:50.228Z,12.73
2019-02-11T11:14:23.647Z,8.37
2019-02-11T11:16:57.063Z,6.50
2019-02-11T11:19:30.483Z,8.20
2019-02-11T11:22:03.963Z,8.23
2019-02-11T11:24:37.379Z,9.50
2019-02-11T11:27:10.802Z,5.63
2019-02-11T11:29:44.323Z,5.83
2019-02-11T11:32:17.748Z,6.27
2019-02-11T11:34:51.196Z,11.20
2019-02-11T11:37:24.756Z,6.10
2019-02-11T11:39:58.179Z,6.50
2019-02-11T11:42:31.595Z,4.63
2019-02-11T11:45:08.423Z,7.13
2019-02-11T11:47:41.956Z,4.47
2019-02-11T11:50:16.829Z,7.93
2019-02-11T11:52:50.312Z,5.73
2019-02-11T11:55:24.621Z,5.57
2019-02-11T11:57:58.109Z,7.77
2019-02-11T12:00:33.978Z,9.23
2019-02-11T12:03:07.442Z,9.93
2019-02-11T12:05:40.920Z,5.33
2019-02-11T12:08:14.341Z,6.17
2019-02-11T12:10:47.812Z,6.40
2019-02-11T12:13:23.586Z,5.80
2019-02-11T12:15:56.621Z,4.73
2019-02-11T12:18:30.171Z,7.00
2019-02-11T12:21:03.709Z,5.33
2019-02-11T12:23:37.193Z,4.63
2019-02-11T12:26:10.655Z,6.53
2019-02-11T12:28:44.125Z,9.83
2019-02-11T12:31:19.106Z,10.50
2019-02-11T12:33:52.583Z,6.70
2019-02-11T12:36:26.018Z,8.80
2019-02-11T12:38:59.509Z,7.33
2019-02-11T12:41:32.938Z,7.13
2019-02-11T12:44:06.363Z,5.73
2019-02-11T12:46:39.856Z,9.63
2019-02-11T12:49:13.510Z,7.93
2019-02-11T12:51:46.996Z,4.00
2019-02-11T12:54:20.491Z,6.43
2019-02-11T12:56:54.737Z,5.47
2019-02-11T12:59:28.161Z,6.40
2019-02-11T13:02:01.594Z,5.57
2019-02-11T13:04:34.998Z,7.50
2019-02-11T13:07:08.494Z,5.23
2019-02-11T13:09:41.977Z,5.43
2019-02-11T13:12:15.709Z,6.27
2019-02-11T13:14:49.201Z,7.37
2019-02-11T13:17:33.313Z,6.50
2019-02-11T13:20:08.446Z,5.23
2019-02-11T13:22:33.105Z,13.43
2019-02-11T13:25:09.804Z,6.33
2019-02-11T13:27:43.307Z,6.67
2019-02-11T13:30:21.695Z,5.23
2019-02-11T13:32:55.323Z,8.77
2019-02-11T13:35:28.828Z,8.40
2019-02-11T13:38:02.277Z,8.03
2019-02-11T13:40:35.816Z,6.67
2019-02-11T13:43:09.437Z,6.90
2019-02-11T13:45:43.003Z,8.97
2019-02-11T13:48:17.022Z,9.70
2019-02-11T13:50:50.542Z,5.27
2019-02-11T13:53:24.436Z,6.47
2019-02-11T13:55:58.263Z,5.33
2019-02-11T13:58:31.827Z,5.03
2019-02-11T14:01:08.349Z,5.10
2019-02-11T14:03:41.791Z,11.53
2019-02-11T14:06:15.277Z,5.20
2019-02-11T14:08:48.709Z,9.00
2019-02-11T14:11:22.221Z,4.60
2019-02-11T14:14:02.871Z,5.37
2019-02-11T14:16:30.870Z,5.80
2019-02-11T14:19:04.673Z,7.93
2019-02-11T14:21:38.085Z,4.60
2019-02-11T14:24:11.872Z,6.00
2019-02-11T14:26:45.286Z,3.97
2019-02-11T14:29:18.708Z,3.67
2019-02-11T14:31:52.150Z,6.73
2019-02-11T14:34:25.582Z,4.23
2019-02-11T14:36:59.064Z,7.67
2019-02-11T14:39:32.518Z,7.10
2019-02-11T14:42:05.939Z,6.37
2019-02-11T14:44:39.392Z,4.37
2019-02-11T14:47:12.875Z,6.00
2019-02-11T14:49:46.310Z,7.03
2019-02-11T14:52:19.751Z,7.00
2019-02-11T14:54:53.174Z,7.70
2019-02-11T14:57:26.585Z,6.33
2019-02-11T15:00:00.022Z,5.70
2019-02-11T15:02:33.424Z,6.23
2019-02-11T15:05:06.992Z,7.50
2019-02-11T15:07:40.403Z,6.60
2019-02-11T15:10:14.643Z,4.30
2019-02-11T15:12:48.064Z,3.90
2019-02-11T15:15:21.501Z,5.50
2019-02-11T15:17:54.904Z,4.40
2019-02-11T15:20:28.409Z,10.27
2019-02-11T15:23:01.843Z,6.93
2019-02-11T15:25:35.264Z,6.40
2019-02-11T15:28:08.677Z,4.37
2019-02-11T15:30:42.104Z,4.73
2019-02-11T15:33:15.515Z,5.30
2019-02-11T15:35:48.951Z,8.13
2019-02-11T15:38:22.365Z,4.87
2019-02-11T15:40:55.784Z,4.90
2019-02-11T15:43:29.213Z,11.00
2019-02-11T15:46:02.643Z,7.37
2019-02-11T15:48:42.997Z,8.37
2019-02-11T15:51:11.223Z,6.80
2019-02-11T15:53:44.628Z,8.07
2019-02-11T15:56:18.052Z,5.63
2019-02-11T15:58:51.472Z,6.13
2019-02-11T16:01:24.959Z,7.10
2019-02-11T16:03:59.794Z,8.47
2019-02-11T16:06:38.198Z,5.00
2019-02-11T16:09:08.604Z,9.77
2019-02-11T16:11:42.032Z,4.30
2019-02-11T16:14:15.452Z,8.40
2019-02-11T16:16:48.875Z,4.57
2019-02-11T16:19:22.287Z,5.33
2019-02-11T16:21:55.711Z,3.37
2019-02-11T16:24:29.119Z,7.13
2019-02-11T16:27:02.559Z,7.00
2019-02-11T16:29:35.971Z,6.13
2019-02-11T16:32:09.408Z,4.73
2019-02-11T16:34:42.818Z,5.10
2019-02-11T16:37:16.248Z,11.87
2019-02-11T16:39:50.676Z,5.77
2019-02-11T16:42:24.113Z,4.10
2019-02-11T16:44:57.515Z,4.30
2019-02-11T16:47:30.948Z,5.50
2019-02-11T16:50:07.172Z,4.50
2019-02-11T16:52:40.600Z,7.93
2019-02-11T16:55:14.028Z,5.87
2019-02-11T16:57:47.502Z,5.17
2019-02-11T17:00:21.289Z,7.70
2019-02-11T17:02:54.720Z,4.83
2019-02-11T17:05:28.140Z,3.67
2019-02-11T17:08:01.568Z,8.23
2019-02-11T17:10:34.987Z,5.37
2019-02-11T17:13:08.416Z,6.57
2019-02-11T17:15:41.896Z,7.60
2019-02-11T17:18:15.328Z,11.30
2019-02-11T17:20:48.747Z,3.40
2019-02-11T17:23:22.180Z,5.90
2019-02-11T17:25:55.608Z,6.53
2019-02-11T17:28:29.035Z,4.93
2019-02-11T17:31:02.925Z,6.37
2019-02-11T17:33:36.355Z,5.27
2019-02-11T17:36:09.816Z,4.03
2019-02-11T17:38:43.247Z,3.70
2019-02-11T17:41:16.659Z,3.77
2019-02-11T17:43:50.092Z,4.77
2019-02-11T17:46:23.576Z,4.30
2019-02-11T17:48:57.001Z,3.33
2019-02-11T17:51:30.492Z,5.00
2019-02-11T17:54:04.387Z,4.03
2019-02-11T17:56:37.867Z,7.07
2019-02-11T17:59:11.300Z,6.00
2019-02-11T18:01:44.731Z,6.13
2019-02-11T18:04:18.227Z,7.73
2019-02-11T18:06:51.659Z,4.80
2019-02-11T18:09:25.093Z,8.00
2019-02-11T18:11:58.501Z,7.63
2019-02-11T18:14:31.933Z,8.97
2019-02-11T18:17:05.344Z,5.67
2019-02-11T18:19:38.766Z,4.13
2019-02-11T18:22:12.183Z,6.13
2019-02-11T18:24:45.603Z,8.33
2019-02-11T18:27:19.020Z,8.37
2019-02-11T18:29:52.453Z,7.10
2019-02-11T18:32:25.855Z,5.30
2019-02-11T18:34:59.375Z,8.87
2019-02-11T18:37:32.891Z,7.63
2019-02-11T18:40:09.475Z,5.77
2019-02-11T18:42:42.973Z,7.23
2019-02-11T18:45:17.718Z,8.67
2019-02-11T18:47:51.140Z,7.87
2019-02-11T18:50:24.575Z,5.60
2019-02-11T18:52:59.936Z,6.67
2019-02-11T18:55:33.208Z,9.83
2019-02-11T18:58:06.619Z,8.63
2019-02-11T19:00:40.059Z,11.33
2019-02-11T19:03:13.469Z,7.87
2019-02-11T19:05:46.966Z,11.40
2019-02-11T19:08:20.385Z,6.63
2019-02-11T19:10:53.815Z,7.80
2019-02-11T19:13:27.232Z,8.57
2019-02-11T19:16:00.651Z,5.20
2019-02-11T19:18:34.071Z,6.03
2019-02-11T19:21:07.508Z,10.00
2019-02-11T19:23:40.925Z,8.57
2019-02-11T19:26:14.355Z,7.93
2019-02-11T19:28:47.771Z,6.60
2019-02-11T19:31:21.208Z,10.33
2019-02-11T19:33:54.627Z,12.80
2019-02-11T19:36:28.510Z,6.70
2019-02-11T19:39:02.059Z,10.97
2019-02-11T19:41:35.488Z,8.33
2019-02-11T19:44:08.912Z,10.23
2019-02-11T19:46:42.354Z,7.70
2019-02-11T19:49:15.778Z,7.40
2019-02-11T19:51:49.212Z,10.00
2019-02-11T19:54:22.632Z,6.73
2019-02-11T19:56:56.062Z,7.90
2019-02-11T19:59:29.489Z,7.70
2019-02-11T20:02:02.912Z,7.03
2019-02-11T20:04:36.320Z,6.43
2019-02-11T20:07:09.761Z,9.43
2019-02-11T20:09:43.181Z,8.50
2019-02-11T20:12:16.617Z,10.17
2019-02-11T20:14:50.028Z,5.47
2019-02-11T20:17:23.463Z,5.80
2019-02-11T20:20:00.315Z,6.80
2019-02-11T20:22:32.096Z,9.90
2019-02-11T20:25:08.052Z,9.23
2019-02-11T20:27:41.555Z,13.20
2019-02-11T20:30:20.577Z,13.03
2019-02-11T20:32:54.068Z,8.17
2019-02-11T20:35:27.492Z,8.63
2019-02-11T20:38:00.920Z,9.03
2019-02-11T20:40:34.334Z,7.60
2019-02-11T20:43:07.756Z,8.13
2019-02-11T20:45:41.180Z,9.87
2019-02-11T20:48:14.620Z,24.97
2019-02-11T20:50:48.028Z,8.40
2019-02-11T20:53:21.476Z,10.57
2019-02-11T20:55:54.882Z,9.17
2019-02-11T20:58:28.312Z,9.97
2019-02-11T21:01:02.900Z,8.43
2019-02-11T21:03:36.738Z,11.40
2019-02-11T21:06:10.238Z,7.77
2019-02-11T21:08:43.652Z,6.60
2019-02-11T21:11:17.064Z,7.13
2019-02-11T21:13:50.499Z,13.73
2019-02-11T21:16:23.913Z,6.90
2019-02-11T21:18:57.353Z,11.03
2019-02-11T21:21:30.767Z,11.13
2019-02-11T21:24:04.184Z,6.00
2019-02-11T21:26:37.604Z,11.90
2019-02-11T21:29:11.059Z,8.40
2019-02-11T21:31:45.217Z,11.17
2019-02-11T21:34:18.661Z,8.20
2019-02-11T21:36:52.088Z,8.50
2019-02-11T21:39:25.544Z,10.83
2019-02-11T21:41:58.968Z,11.27
2019-02-11T21:44:32.688Z,7.50
2019-02-11T21:47:06.146Z,9.27
2019-02-11T21:49:39.598Z,12.90
2019-02-11T21:52:13.010Z,12.80
2019-02-11T21:54:46.442Z,11.60
2019-02-11T21:57:19.855Z,12.73
2019-02-11T21:59:53.275Z,10.40
2019-02-11T22:02:26.763Z,16.77
2019-02-11T22:05:00.338Z,12.63
2019-02-11T22:07:33.752Z,8.43
2019-02-11T22:10:10.375Z,17.00
2019-02-11T22:12:43.871Z,13.23
2019-02-11T22:15:17.304Z,12.03
2019-02-11T22:17:50.720Z,9.33
2019-02-11T22:20:24.157Z,11.00
2019-02-11T22:22:57.572Z,22.87
2019-02-11T22:25:31.011Z,14.13
2019-02-11T22:28:04.434Z,13.47
2019-02-11T22:30:37.867Z,11.17
2019-02-11T22:33:11.316Z,13.07
2019-02-11T22:35:44.743Z,15.30
2019-02-11T22:38:18.164Z,11.63
2019-02-11T22:40:51.587Z,9.97
2019-02-11T22:43:25.009Z,16.83
2019-02-11T22:45:58.440Z,10.27
2019-02-11T22:48:32.060Z,11.50
2019-02-11T22:51:05.486Z,13.50
2019-02-11T22:53:38.900Z,14.70
2019-02-11T22:56:12.336Z,12.13
2019-02-11T22:58:45.758Z,16.27
2019-02-11T23:01:19.925Z,12.97
2019-02-11T23:03:53.339Z,13.40
2019-02-11T23:06:26.778Z,20.43
2019-02-11T23:09:00.219Z,13.70
2019-02-11T23:11:33.695Z,12.77
2019-02-11T23:14:08.729Z,15.87
2019-02-11T23:16:42.127Z,12.23
2019-02-11T23:19:15.544Z,11.83
2019-02-11T23:21:48.995Z,14.00
2019-02-11T23:24:22.400Z,17.20
2019-02-11T23:26:55.829Z,15.30
2019-02-11T23:29:29.241Z,15.53
2019-02-11T23:32:02.677Z,10.33
2019-02-11T23:34:36.103Z,17.87
2019-02-11T23:37:09.527Z,12.43
2019-02-11T23:39:42.944Z,15.03
2019-02-11T23:42:16.872Z,15.47
2019-02-11T23:44:50.290Z,14.53
2019-02-11T23:47:23.728Z,15.43
2019-02-11T23:49:57.143Z,11.03
2019-02-11T23:52:30.758Z,12.93
2019-02-11T23:55:06.422Z,24.47
2019-02-11T23:57:39.856Z,14.50
